Time;durP1;ratioP1;P1;durP2;ratioP2;P2;SDS_P1;SDS_P2;PMS_P1;PMS_P2;Temp;Humidity;BMP_temperature;BMP_pressure;BME280_temperature;BME280_humidity;BME280_pressure;Samples;Min_cycle;Max_cycle;Signal;HPM_P1;HPM_P2
2021/08/26 00:00:19;;;;;;;3.03;1.40;;;;;;;18.48;55.82;97855.75;6244765;23;20015;-63
2021/08/26 00:06:25;;;;;;;1.25;1.15;;;;;;;18.52;55.63;97837.34;6244431;23;20030;-62
2021/08/26 00:08:53;;;;;;;1.23;0.80;;;;;;;18.44;55.72;97840.03;6244789;23;20015;-63
2021/08/26 00:11:24;;;;;;;1.45;0.50;;;;;;;18.43;55.82;97844.75;6244627;23;20004;-64
2021/08/26 00:13:52;;;;;;;0.65;0.65;;;;;;;18.42;55.91;97839.50;6244669;23;20016;-67
2021/08/26 00:16:26;;;;;;;0.50;0.30;;;;;;;18.41;55.86;97838.69;6217898;23;20346;-66
2021/08/26 00:18:53;;;;;;;1.48;1.17;;;;;;;18.34;55.83;97835.50;6217904;23;20008;-66
2021/08/26 00:21:19;;;;;;;1.52;1.15;;;;;;;18.28;56.07;97837.53;6244595;23;20472;-65
2021/08/26 00:24:00;;;;;;;1.10;0.73;;;;;;;18.22;56.56;97822.13;6244722;23;20061;-67
2021/08/26 00:26:26;;;;;;;0.30;0.30;;;;;;;18.15;56.64;97827.25;6218248;23;20095;-66
2021/08/26 00:28:54;;;;;;;0.57;0.57;;;;;;;18.12;56.59;97828.69;6244509;23;20082;-64
2021/08/26 00:31:20;;;;;;;0.95;0.93;;;;;;;18.09;56.74;97825.72;6218032;23;20016;-64
2021/08/26 00:37:08;;;;;;;0.65;0.65;;;;;;;18.00;56.76;97839.50;6234426;23;20092;-65
2021/08/26 00:39:34;;;;;;;1.98;1.55;;;;;;;17.97;56.84;97842.91;6244543;23;20445;-68
2021/08/26 00:42:39;;;;;;;0.55;0.55;;;;;;;17.96;57.11;97841.25;6244741;23;20015;-64
2021/08/26 00:48:29;;;;;;;3.10;1.15;;;;;;;17.86;57.23;97858.91;6238446;23;20019;-64
2021/08/26 00:51:00;;;;;;;0.75;0.75;;;;;;;17.82;57.37;97857.88;6244662;23;20008;-66
2021/08/26 00:54:05;;;;;;;1.00;0.93;;;;;;;17.80;57.60;97847.06;6218059;23;20020;-65
2021/08/26 00:56:33;;;;;;;2.30;0.45;;;;;;;17.76;57.58;97861.88;6217198;23;20020;-64
2021/08/26 00:59:39;;;;;;;3.17;2.08;;;;;;;17.77;57.71;97847.69;6217384;23;20020;-71
2021/08/26 01:02:46;;;;;;;0.73;0.57;;;;;;;17.72;57.94;97847.75;6244536;23;20031;-66
2021/08/26 01:06:01;;;;;;;0.90;0.90;;;;;;;17.67;57.83;97856.19;6243839;23;20039;-66
2021/08/26 01:08:40;;;;;;;1.75;0.73;;;;;;;17.68;57.97;97849.50;6236994;23;20020;-65
2021/08/26 01:14:30;;;;;;;0.57;0.45;;;;;;;17.66;58.00;97865.66;6237756;23;20023;-65
2021/08/26 01:17:18;;;;;;;0.65;0.65;;;;;;;17.69;57.70;97851.97;6244318;23;20012;-65
2021/08/26 01:19:44;;;;;;;0.75;0.68;;;;;;;17.78;57.60;97860.41;6244186;23;20004;-65
2021/08/26 01:22:49;;;;;;;1.58;1.13;;;;;;;17.90;57.33;97854.41;6244467;23;20055;-66
2021/08/26 01:28:58;;;;;;;0.25;0.25;;;;;;;18.21;56.62;97859.34;6233242;23;20062;-67
2021/08/26 01:31:43;;;;;;;2.33;1.13;;;;;;;18.33;56.41;97856.06;6246581;23;20008;-65
2021/08/26 01:34:09;;;;;;;1.15;0.90;;;;;;;18.43;56.24;97866.97;6245372;23;20368;-68
2021/08/26 01:40:52;;;;;;;0.47;0.47;;;;;;;18.65;55.87;97876.53;6239852;23;20377;-67
2021/08/26 01:46:42;;;;;;;5.53;1.27;;;;;;;18.85;55.57;97884.44;6240032;23;20027;-63
2021/08/26 01:49:08;;;;;;;0.90;0.50;;;;;;;18.99;55.40;97887.22;6246051;23;20007;-67
2021/08/26 01:51:33;;;;;;;0.80;0.80;;;;;;;;;;6246049;23;20008;-65
2021/08/26 01:53:59;;;;;;;1.52;1.42;;;;;;;20.44;52.25;97890.78;6245833;23;20019;-67
2021/08/26 01:56:25;;;;;;;1.00;0.73;;;;;;;21.57;49.93;97897.75;6245679;23;20035;-67
2021/08/26 01:58:50;;;;;;;1.40;1.30;;;;;;;22.51;48.55;97902.63;6245470;23;20008;-66
2021/08/26 02:01:56;;;;;;;1.23;0.55;;;;;;;23.70;46.63;97890.44;6245726;23;20035;-67
2021/08/26 02:08:20;;;;;;;0.40;0.40;;;;;;;26.04;43.21;97902.78;6149495;23;20052;-67
2021/08/26 02:11:20;;;;;;;1.00;0.95;;;;;;;26.70;42.22;97904.13;6219263;23;20026;-69
2021/08/26 02:14:26;;;;;;;1.75;1.30;;;;;;;27.21;42.08;97903.31;6218701;23;20352;-64
2021/08/26 02:16:52;;;;;;;0.55;0.55;;;;;;;27.53;41.58;97911.69;6245441;23;20035;-65
2021/08/26 02:19:33;;;;;;;2.08;1.50;;;;;;;27.84;41.88;97900.63;6246015;23;20012;-64
2021/08/26 02:22:38;;;;;;;0.70;0.70;;;;;;;28.14;41.29;97903.66;6245784;23;20000;-63
2021/08/26 02:25:09;;;;;;;0.50;0.50;;;;;;;28.53;40.90;97903.53;6245575;23;20279;-64
2021/08/26 02:34:25;;;;;;;0.70;0.52;;;;;;;30.34;38.92;97904.88;6233119;23;20023;-63
2021/08/26 02:36:50;;;;;;;0.63;0.63;;;;;;;30.93;38.11;97921.19;6218570;23;20449;-65
2021/08/26 02:39:27;;;;;;;0.70;0.70;;;;;;;31.37;37.74;97939.38;6245548;23;20047;-64
2021/08/26 02:41:56;;;;;;;0.95;0.70;;;;;;;31.82;37.42;97961.91;6193942;23;20090;-64
2021/08/26 02:47:44;;;;;;;0.47;0.47;;;;;;;32.34;36.99;97981.63;6245104;22;20095;-64
2021/08/26 02:50:09;;;;;;;0.75;0.70;;;;;;;32.53;37.06;97983.31;6245939;23;20036;-63
2021/08/26 02:52:35;;;;;;;0.50;0.50;;;;;;;32.82;36.43;97987.84;6245400;23;20394;-64
2021/08/26 02:55:01;;;;;;;1.05;0.60;;;;;;;33.60;35.58;97987.41;6245505;23;20008;-63
2021/08/26 02:57:29;;;;;;;0.40;0.40;;;;;;;33.85;35.04;97984.56;6218510;23;20019;-64
2021/08/26 02:59:54;;;;;;;1.20;0.55;;;;;;;34.23;35.15;98005.56;6218928;23;20016;-63
2021/08/26 03:02:20;;;;;;;0.55;0.55;;;;;;;34.38;34.84;97994.13;6245574;23;20023;-63
2021/08/26 03:04:46;;;;;;;0.75;0.75;;;;;;;34.32;35.22;97999.44;6244771;23;20445;-64
2021/08/26 09:09:05;;;;;;;0.10;0.10;;;;;;;21.53;47.15;98285.81;6244450;23;20061;-60
2021/08/26 09:11:32;;;;;;;0.70;0.40;;;;;;;21.48;47.23;98299.06;6240183;23;20134;-64
2021/08/26 09:14:08;;;;;;;0.10;0.10;;;;;;;21.37;47.39;98298.53;6243392;23;20016;-63
2021/08/26 09:16:47;;;;;;;0.70;0.10;;;;;;;21.35;47.40;98289.66;6243098;23;20008;-60
2021/08/26 09:19:30;;;;;;;0.28;0.28;;;;;;;21.35;47.46;98292.44;6243001;23;20012;-60
2021/08/26 09:22:03;;;;;;;0.10;0.10;;;;;;;21.40;47.58;98285.91;6243039;23;20019;-60
2021/08/26 09:24:52;;;;;;;0.10;0.10;;;;;;;21.38;47.62;98288.16;6242969;23;20023;-61
2021/08/26 09:27:36;;;;;;;0.70;0.57;;;;;;;21.37;47.47;98297.72;6243732;23;20016;-62
2021/08/26 09:30:05;;;;;;;0.22;0.22;;;;;;;21.39;47.57;98295.41;6243482;23;20012;-62
2021/08/26 09:32:59;;;;;;;0.30;0.30;;;;;;;21.43;47.18;98299.22;6242471;23;20007;-61
2021/08/26 09:35:33;;;;;;;0.17;0.17;;;;;;;21.57;47.20;98307.53;6243060;23;20134;-61
2021/08/26 09:38:05;;;;;;;0.10;0.10;;;;;;;21.68;46.95;98304.16;6243334;23;20094;-67
2021/08/26 09:40:41;;;;;;;1.02;0.40;;;;;;;21.81;46.67;98296.00;6242881;23;20035;-63
2021/08/26 09:43:07;;;;;;;0.60;0.43;;;;;;;21.90;46.43;98304.44;6243084;23;20083;-63
2021/08/26 09:45:36;;;;;;;0.20;0.20;;;;;;;21.94;46.28;98308.22;6242894;23;20008;-60
2021/08/26 09:48:16;;;;;;;0.30;0.30;;;;;;;21.96;46.21;98306.75;6243025;23;20078;-62
2021/08/26 09:50:53;;;;;;;0.45;0.45;;;;;;;21.98;46.47;98296.06;6243036;23;20008;-63
2021/08/26 09:53:21;;;;;;;0.47;0.30;;;;;;;21.99;46.44;98302.47;6242639;23;20012;-65
2021/08/26 09:56:00;;;;;;;0.40;0.40;;;;;;;22.09;46.36;98295.78;6242865;23;20330;-61
2021/08/26 09:58:29;;;;;;;0.10;0.10;;;;;;;22.14;46.07;98302.06;6243311;23;20008;-63
2021/08/26 10:01:24;;;;;;;0.20;0.20;;;;;;;22.21;46.02;98304.38;6190855;23;20016;-62
2021/08/26 10:03:50;;;;;;;0.20;0.20;;;;;;;22.23;45.67;98302.06;6210169;23;20681;-62
2021/08/26 10:06:18;;;;;;;0.38;0.38;;;;;;;22.29;45.70;98295.19;6215966;23;20008;-61
2021/08/26 10:08:46;;;;;;;0.20;0.20;;;;;;;22.32;45.72;98308.56;6242602;23;20095;-62
2021/08/26 10:11:16;;;;;;;1.35;0.20;;;;;;;22.33;45.36;98295.38;6242794;23;20392;-62
2021/08/26 10:13:42;;;;;;;0.20;0.20;;;;;;;22.34;45.44;98309.03;6242315;23;20019;-62
2021/08/26 10:16:08;;;;;;;0.55;0.55;;;;;;;22.35;45.28;98310.69;6242741;23;20019;-61
2021/08/26 10:18:37;;;;;;;0.10;0.10;;;;;;;22.35;45.57;98304.28;6242761;23;20087;-63
2021/08/26 10:21:08;;;;;;;0.17;0.17;;;;;;;22.32;45.31;98307.69;6242313;23;20085;-60
2021/08/26 10:23:36;;;;;;;1.88;0.38;;;;;;;22.32;45.29;98311.34;6242595;23;20527;-62
2021/08/26 10:26:05;;;;;;;0.10;0.10;;;;;;;22.35;45.21;98299.50;6242511;23;20044;-60
2021/08/26 10:28:34;;;;;;;0.75;0.30;;;;;;;22.41;45.18;98302.97;6242667;23;20004;-61
2021/08/26 10:31:23;;;;;;;0.10;0.10;;;;;;;22.49;44.74;98296.56;6242421;23;20111;-60
2021/08/26 10:33:49;;;;;;;0.17;0.17;;;;;;;22.53;44.64;98308.75;6241814;23;20012;-64
2021/08/26 10:36:15;;;;;;;0.28;0.22;;;;;;;22.51;44.85;98313.00;6242929;23;20019;-61
2021/08/26 10:38:41;;;;;;;0.10;0.10;;;;;;;22.52;44.79;98303.47;6242495;23;20004;-61
2021/08/26 10:41:19;;;;;;;0.63;0.63;;;;;;;22.56;44.43;98305.28;6242813;23;20015;-62
2021/08/26 10:44:00;;;;;;;0.38;0.20;;;;;;;22.66;44.23;98312.56;6242477;23;20026;-64
2021/08/26 10:46:49;;;;;;;0.17;0.10;;;;;;;22.71;43.98;98300.38;6242721;23;20035;-63
2021/08/26 10:49:19;;;;;;;0.10;0.10;;;;;;;22.72;44.15;98307.63;6242648;23;20388;-63
2021/08/26 10:51:50;;;;;;;0.38;0.35;;;;;;;22.75;43.92;98301.38;6241896;23;20012;-60
2021/08/26 10:54:29;;;;;;;0.10;0.10;;;;;;;22.75;44.03;98310.59;6242384;23;20095;-62
2021/08/26 10:56:56;;;;;;;0.35;0.35;;;;;;;22.74;43.77;98308.94;6242792;23;20012;-62
2021/08/26 10:59:30;;;;;;;0.10;0.10;;;;;;;22.70;43.65;98307.13;6242140;23;20074;-63
2021/08/26 11:01:56;;;;;;;0.35;0.28;;;;;;;22.67;43.76;98324.56;6241812;23;20008;-62
2021/08/26 11:04:30;;;;;;;1.00;0.28;;;;;;;22.60;44.06;98299.03;6239800;23;20091;-63
2021/08/26 11:06:58;;;;;;;0.43;0.43;;;;;;;22.70;43.90;98295.94;6240972;23;20369;-62
2021/08/26 11:09:32;;;;;;;0.20;0.20;;;;;;;22.86;43.28;98299.88;6240955;23;20078;-61
2021/08/26 11:12:22;;;;;;;0.10;0.10;;;;;;;22.95;43.06;98302.69;6240490;23;20015;-62
2021/08/26 11:14:49;;;;;;;0.20;0.20;;;;;;;22.96;43.14;98303.53;6240602;23;20019;-62
2021/08/26 11:17:25;;;;;;;0.20;0.20;;;;;;;22.92;43.14;98300.53;6241694;23;20058;-61
2021/08/26 11:19:51;;;;;;;0.45;0.45;;;;;;;22.93;43.14;98305.81;6243192;23;20455;-62
2021/08/26 11:22:17;;;;;;;0.30;0.30;;;;;;;23.00;43.10;98312.91;6243112;23;20035;-64
2021/08/26 11:24:43;;;;;;;0.20;0.20;;;;;;;23.00;43.02;98312.91;6243684;23;20012;-64
2021/08/26 11:27:20;;;;;;;0.10;0.10;;;;;;;22.94;42.88;98306.66;6243721;23;20433;-62
2021/08/26 11:29:47;;;;;;;0.17;0.17;;;;;;;22.95;42.99;98305.47;6243018;23;20472;-62
2021/08/26 11:32:15;;;;;;;0.10;0.10;;;;;;;22.97;42.95;98314.41;6243735;23;20368;-61
2021/08/26 11:34:49;;;;;;;0.80;0.52;;;;;;;22.97;42.71;98314.41;6242693;23;20387;-65
2021/08/26 11:37:15;;;;;;;0.15;0.15;;;;;;;22.97;42.82;98322.78;6242978;23;20015;-62
2021/08/26 11:39:51;;;;;;;0.20;0.20;;;;;;;22.99;42.52;98311.25;6243042;23;20012;-63
2021/08/26 11:42:22;;;;;;;0.20;0.20;;;;;;;23.03;42.19;98309.47;6243299;23;20008;-62
2021/08/26 11:45:10;;;;;;;0.10;0.10;;;;;;;23.08;42.20;98312.88;6243618;23;20349;-66
2021/08/26 11:47:38;;;;;;;0.60;0.40;;;;;;;23.13;42.36;98319.50;6242603;23;20098;-62
2021/08/26 11:50:15;;;;;;;0.13;0.13;;;;;;;23.05;42.25;98327.56;6242978;23;20020;-61
2021/08/26 11:52:42;;;;;;;0.32;0.32;;;;;;;22.98;41.88;98327.25;6243112;23;20008;-63
2021/08/26 11:55:08;;;;;;;0.43;0.10;;;;;;;22.93;41.94;98325.41;6243497;23;20039;-64
2021/08/26 11:57:34;;;;;;;0.20;0.20;;;;;;;22.94;41.73;98323.44;6243221;23;20345;-61
2021/08/26 12:00:07;;;;;;;0.55;0.55;;;;;;;22.99;41.78;98316.88;6243410;23;20087;-61
2021/08/26 12:02:36;;;;;;;0.10;0.10;;;;;;;23.02;41.40;98325.41;6242507;23;20003;-62
2021/08/26 12:05:03;;;;;;;0.47;0.47;;;;;;;22.97;41.51;98328.41;6243012;23;20061;-62
2021/08/26 12:07:35;;;;;;;0.10;0.10;;;;;;;22.88;41.63;98321.97;6242732;23;20126;-62
2021/08/26 12:10:25;;;;;;;0.00;0.00;;;;;;;22.80;41.86;98319.97;6243217;23;20466;-63
2021/08/26 12:13:03;;;;;;;0.10;0.10;;;;;;;22.74;41.60;98322.13;6242418;23;20471;-62
2021/08/26 12:15:39;;;;;;;0.17;0.10;;;;;;;22.72;41.74;98319.63;6242878;23;20031;-62
2021/08/26 12:18:09;;;;;;;0.13;0.13;;;;;;;22.75;41.54;98321.78;6242994;23;20532;-62
2021/08/26 12:20:41;;;;;;;0.43;0.43;;;;;;;22.75;41.12;98321.78;6243512;23;20008;-62
2021/08/26 12:23:08;;;;;;;0.10;0.10;;;;;;;22.77;41.38;98320.63;6242965;23;20008;-62
2021/08/26 12:25:37;;;;;;;0.10;0.10;;;;;;;22.71;41.32;98326.38;6242557;23;20019;-63
2021/08/26 12:28:06;;;;;;;3.17;0.68;;;;;;;22.64;41.02;98323.25;6216007;23;20000;-63
2021/08/26 12:30:40;;;;;;;0.20;0.20;;;;;;;22.54;41.25;98324.41;6242955;23;20456;-63
2021/08/26 12:33:11;;;;;;;0.10;0.10;;;;;;;22.39;41.59;98331.28;6242459;23;20015;-63
2021/08/26 12:35:44;;;;;;;0.10;0.10;;;;;;;22.37;41.49;98319.56;6241735;23;20035;-61
2021/08/26 12:38:12;;;;;;;0.15;0.15;;;;;;;22.38;41.37;98332.41;6242947;23;20015;-63
2021/08/26 12:40:52;;;;;;;0.10;0.10;;;;;;;22.38;41.45;98328.81;6215675;23;20008;-63
2021/08/26 12:43:19;;;;;;;0.17;0.17;;;;;;;22.35;41.44;98332.25;6242503;23;20083;-63
2021/08/26 12:45:49;;;;;;;0.20;0.20;;;;;;;22.27;41.33;98328.22;6242406;23;20004;-64
2021/08/26 12:48:27;;;;;;;0.10;0.10;;;;;;;22.24;41.23;98334.47;6242456;23;20468;-65
2021/08/26 12:51:10;;;;;;;0.13;0.13;;;;;;;22.23;41.21;98332.81;6216259;23;20023;-65
2021/08/26 12:53:37;;;;;;;1.67;0.17;;;;;;;22.14;41.27;98334.75;6242423;23;20099;-65
2021/08/26 12:56:06;;;;;;;0.50;0.50;;;;;;;22.17;41.11;98334.13;6242813;23;20008;-65
2021/08/26 12:58:32;;;;;;;0.20;0.20;;;;;;;22.19;41.15;98343.84;6241885;23;20009;-66
2021/08/26 13:00:57;;;;;;;0.10;0.10;;;;;;;22.21;41.08;98346.31;6214369;23;20073;-65
2021/08/26 13:03:49;;;;;;;5.30;1.23;;;;;;;22.27;40.85;98335.81;6240795;23;20322;-67
2021/08/26 13:06:15;;;;;;;0.10;0.10;;;;;;;22.28;40.85;98346.66;6213645;23;20461;-65
2021/08/26 13:08:45;;;;;;;1.13;0.70;;;;;;;22.28;40.60;98343.88;6215110;23;20070;-68
2021/08/26 13:11:13;;;;;;;0.38;0.38;;;;;;;22.24;40.71;98342.88;6241806;23;20115;-67
2021/08/26 13:13:40;;;;;;;0.20;0.20;;;;;;;22.16;41.07;98347.28;6241085;23;20039;-70
2021/08/26 13:16:06;;;;;;;0.57;0.28;;;;;;;22.08;41.18;98345.25;6214443;23;20011;-72
2021/08/26 13:18:32;;;;;;;0.10;0.10;;;;;;;22.01;41.39;98350.50;6243201;23;20036;-71
2021/08/26 13:20:57;;;;;;;0.20;0.20;;;;;;;21.91;41.48;98357.22;6241725;23;20015;-69
2021/08/26 13:23:23;;;;;;;0.15;0.15;;;;;;;21.83;41.45;98353.22;6242207;23;20023;-65
2021/08/26 13:29:13;;;;;;;0.35;0.35;;;;;;;21.73;41.29;98356.28;6238080;23;20039;-67
2021/08/26 13:31:39;;;;;;;0.10;0.10;;;;;;;21.72;41.51;98356.63;6243956;23;20012;-62
2021/08/26 13:34:04;;;;;;;0.47;0.45;;;;;;;21.68;41.37;98357.22;6242686;23;20449;-64
2021/08/26 13:36:31;;;;;;;0.10;0.10;;;;;;;21.68;41.53;98348.84;6244156;23;20008;-64
2021/08/26 13:38:57;;;;;;;0.20;0.20;;;;;;;21.72;41.14;98359.41;6243796;23;20012;-65
2021/08/26 13:41:23;;;;;;;0.13;0.13;;;;;;;21.74;41.12;98360.72;6244360;23;20015;-68
2021/08/26 13:43:49;;;;;;;0.35;0.35;;;;;;;21.73;41.40;98359.09;6243718;23;20008;-65
2021/08/26 13:46:15;;;;;;;0.10;0.10;;;;;;;21.71;41.21;98364.16;6244238;23;20019;-69
2021/08/26 13:48:44;;;;;;;0.38;0.28;;;;;;;21.68;41.20;98362.81;6243806;23;20066;-70
2021/08/26 13:51:13;;;;;;;0.00;0.00;;;;;;;21.66;41.21;98362.31;6243527;23;20016;-70
2021/08/26 13:53:46;;;;;;;0.85;0.30;;;;;;;21.65;41.24;98365.44;6243807;23;20016;-68
2021/08/26 13:56:13;;;;;;;0.30;0.30;;;;;;;21.62;41.37;98372.47;6243868;23;20012;-65
2021/08/26 13:58:39;;;;;;;0.40;0.40;;;;;;;21.60;41.62;98379.53;6243367;23;20065;-63
2021/08/26 14:01:04;;;;;;;0.10;0.10;;;;;;;21.59;41.46;98383.47;6243753;23;20078;-63
2021/08/26 14:03:30;;;;;;;0.35;0.35;;;;;;;21.56;41.65;98387.72;6235171;23;20109;-61
2021/08/26 14:05:56;;;;;;;0.38;0.38;;;;;;;21.54;41.35;98398.41;6243944;23;20024;-65
2021/08/26 14:08:21;;;;;;;0.80;0.20;;;;;;;21.52;41.47;98401.53;6243361;23;20080;-63
2021/08/26 14:10:47;;;;;;;0.17;0.17;;;;;;;21.48;41.35;98406.06;6243839;23;20008;-63
2021/08/26 14:13:13;;;;;;;0.15;0.15;;;;;;;21.45;41.64;98414.22;6243342;23;20019;-66
2021/08/26 14:15:39;;;;;;;0.75;0.22;;;;;;;21.40;41.68;98409.59;6244139;23;20012;-64
2021/08/26 14:18:05;;;;;;;0.30;0.30;;;;;;;21.37;41.60;98413.00;6216758;23;20019;-68
2021/08/26 14:20:30;;;;;;;0.15;0.15;;;;;;;21.31;41.72;98417.91;6243747;23;19996;-66
2021/08/26 14:22:56;;;;;;;0.38;0.38;;;;;;;21.26;41.95;98415.25;6243959;23;20148;-70
2021/08/26 14:25:22;;;;;;;0.10;0.10;;;;;;;21.20;41.83;98416.50;6243242;23;20007;-67
2021/08/26 14:27:47;;;;;;;0.10;0.10;;;;;;;21.14;42.04;98417.75;6243859;23;20428;-69
2021/08/26 14:30:14;;;;;;;0.20;0.20;;;;;;;21.08;41.94;98419.84;6243378;23;20356;-68
2021/08/26 14:32:39;;;;;;;0.20;0.20;;;;;;;21.03;42.14;98421.91;6242699;23;20024;-69
2021/08/26 14:35:06;;;;;;;0.30;0.30;;;;;;;20.99;42.15;98424.50;6243784;23;20043;-66
2021/08/26 14:37:33;;;;;;;0.20;0.20;;;;;;;20.91;42.14;98426.06;6242968;23;20048;-63
2021/08/26 14:39:58;;;;;;;2.00;0.32;;;;;;;20.85;42.35;98434.84;6243667;23;20027;-65
2021/08/26 14:42:24;;;;;;;3.83;0.40;;;;;;;20.78;42.46;98436.09;6243605;23;20012;-64
2021/08/26 14:44:50;;;;;;;0.55;0.55;;;;;;;20.71;42.39;98437.66;6243627;23;20125;-65
2021/08/26 14:47:15;;;;;;;0.10;0.10;;;;;;;20.65;42.41;98439.69;6243329;23;20108;-68
2021/08/26 14:49:41;;;;;;;0.20;0.20;;;;;;;20.61;42.49;98442.31;6243524;23;20361;-67
2021/08/26 14:52:07;;;;;;;0.52;0.25;;;;;;;20.56;42.46;98453.53;6243003;23;20043;-66
2021/08/26 14:54:34;;;;;;;0.20;0.20;;;;;;;20.50;42.61;98452.00;6216290;23;20019;-64
2021/08/26 14:57:00;;;;;;;0.55;0.55;;;;;;;20.43;42.55;98457.16;6243769;23;20504;-63
2021/08/26 14:59:26;;;;;;;0.10;0.10;;;;;;;20.36;42.79;98453.94;6243157;23;20031;-67
2021/08/26 15:01:51;;;;;;;0.38;0.38;;;;;;;20.28;42.86;98461.88;6243647;23;20019;-63
2021/08/26 15:04:17;;;;;;;0.50;0.50;;;;;;;20.18;42.82;98458.47;6242375;23;20039;-67
2021/08/26 15:06:43;;;;;;;0.13;0.13;;;;;;;20.09;42.99;98469.50;6243060;23;20028;-65
2021/08/26 15:09:09;;;;;;;0.13;0.13;;;;;;;19.99;43.03;98467.72;6243630;23;20012;-62
2021/08/26 15:11:34;;;;;;;0.10;0.10;;;;;;;19.89;43.12;98473.47;6242162;23;20456;-64
2021/08/26 15:14:00;;;;;;;0.20;0.20;;;;;;;19.81;43.42;98482.53;6242841;23;20016;-67
2021/08/26 15:16:26;;;;;;;0.52;0.52;;;;;;;19.71;43.55;98484.31;6243046;23;20016;-63
2021/08/26 15:18:51;;;;;;;0.55;0.40;;;;;;;19.64;43.71;98485.81;6243475;23;20091;-64
2021/08/26 15:21:17;;;;;;;3.13;1.27;;;;;;;19.57;43.93;98481.47;6242568;23;20008;-64
2021/08/26 15:23:43;;;;;;;0.55;0.20;;;;;;;19.52;43.97;98498.28;6241735;23;20008;-70
2021/08/26 15:26:09;;;;;;;1.45;0.80;;;;;;;19.44;43.88;98496.97;6242379;23;20035;-67
2021/08/26 15:28:34;;;;;;;0.57;0.57;;;;;;;19.36;44.05;98496.81;6241408;23;20008;-66
2021/08/26 15:31:00;;;;;;;0.40;0.40;;;;;;;19.27;44.08;98499.44;6242535;23;20023;-64
2021/08/26 15:33:26;;;;;;;0.70;0.60;;;;;;;19.19;44.04;98512.06;6214416;23;20020;-69
2021/08/26 15:35:52;;;;;;;0.10;0.10;;;;;;;19.13;44.34;98516.06;6242222;23;20330;-72
2021/08/26 15:38:18;;;;;;;0.32;0.30;;;;;;;19.07;44.26;98520.88;6242144;23;20039;-65
2021/08/26 15:40:47;;;;;;;0.70;0.68;;;;;;;19.01;44.22;98502.59;6242298;23;20015;-67
2021/08/26 15:43:15;;;;;;;0.38;0.38;;;;;;;18.96;44.29;98515.72;6241908;23;20090;-65
2021/08/26 15:45:42;;;;;;;0.85;0.55;;;;;;;18.90;44.37;98515.81;6242012;23;20008;-64
2021/08/26 15:48:12;;;;;;;0.70;0.30;;;;;;;18.82;44.31;98524.75;6241811;23;20019;-66
2021/08/26 15:50:38;;;;;;;0.20;0.20;;;;;;;18.74;44.37;98517.91;6215990;23;20490;-68
2021/08/26 15:53:08;;;;;;;0.85;0.28;;;;;;;18.69;44.34;98522.69;6242017;23;20012;-68
2021/08/26 15:55:42;;;;;;;4.00;0.82;;;;;;;18.62;44.43;98523.03;6241744;23;20326;-69
2021/08/26 16:01:00;;;;;;;0.10;0.10;;;;;;;18.47;44.55;98532.38;6242240;23;20019;-65
2021/08/26 16:03:28;;;;;;;0.80;0.52;;;;;;;18.40;44.62;98526.31;6241275;23;20086;-67
2021/08/26 16:05:53;;;;;;;0.63;0.63;;;;;;;18.35;44.65;98532.78;6242881;23;20341;-69
2021/08/26 16:08:19;;;;;;;0.20;0.20;;;;;;;18.29;44.82;98528.38;6241943;23;20032;-64
2021/08/26 16:10:46;;;;;;;0.30;0.30;;;;;;;18.25;44.66;98535.66;6242230;23;20012;-64
2021/08/26 16:13:13;;;;;;;3.03;0.57;;;;;;;18.23;44.69;98539.84;6242505;23;20050;-65
2021/08/26 16:15:38;;;;;;;0.28;0.28;;;;;;;18.15;44.72;98542.16;6215381;23;20012;-65
2021/08/26 16:18:05;;;;;;;0.30;0.30;;;;;;;18.12;44.85;98539.09;6242323;23;20039;-64
2021/08/26 16:20:32;;;;;;;0.38;0.35;;;;;;;18.05;44.81;98539.47;6241091;23;20062;-65
2021/08/26 16:22:58;;;;;;;0.40;0.17;;;;;;;17.98;44.84;98544.50;6241303;23;20038;-67
2021/08/26 16:25:23;;;;;;;0.20;0.20;;;;;;;17.90;45.13;98559.00;6240334;23;20467;-66
2021/08/26 16:27:51;;;;;;;0.20;0.20;;;;;;;17.80;45.12;98544.06;6241977;23;20103;-65
2021/08/26 16:30:19;;;;;;;0.10;0.10;;;;;;;17.72;45.29;98550.22;6242807;23;20004;-70
2021/08/26 16:32:46;;;;;;;0.35;0.35;;;;;;;17.64;45.28;98546.09;6240360;23;20008;-67
2021/08/26 16:35:13;;;;;;;1.10;0.40;;;;;;;17.55;45.41;98545.06;6240350;23;20012;-67
2021/08/26 16:37:44;;;;;;;0.30;0.30;;;;;;;17.46;45.59;98542.06;6241984;23;20095;-65
2021/08/26 16:40:11;;;;;;;5.57;0.45;;;;;;;17.38;45.63;98541.84;6243177;23;20012;-66
2021/08/26 16:42:37;;;;;;;0.10;0.10;;;;;;;17.31;45.85;98550.47;6242865;23;20023;-64
2021/08/26 16:45:06;;;;;;;0.20;0.20;;;;;;;17.23;46.01;98548.31;6243055;23;20026;-66
2021/08/26 16:47:31;;;;;;;1.13;0.30;;;;;;;17.14;46.09;98554.44;6243196;23;20084;-66
2021/08/26 16:49:58;;;;;;;0.20;0.20;;;;;;;17.06;46.27;98551.41;6243209;23;20027;-66
2021/08/26 16:52:24;;;;;;;0.10;0.10;;;;;;;16.98;46.15;98550.88;6243161;23;20073;-67
2021/08/26 16:54:50;;;;;;;1.27;0.93;;;;;;;16.95;46.45;98557.00;6241720;23;20392;-66
2021/08/26 16:57:17;;;;;;;0.20;0.20;;;;;;;16.90;46.40;98556.19;6243428;23;20008;-65
2021/08/26 16:59:43;;;;;;;0.65;0.43;;;;;;;16.85;46.25;98556.19;6242861;23;20087;-63
2021/08/26 17:02:09;;;;;;;0.25;0.25;;;;;;;16.77;46.31;98558.44;6244141;23;20089;-66
2021/08/26 17:04:34;;;;;;;0.70;0.35;;;;;;;16.69;46.68;98559.00;6244928;23;20054;-64
2021/08/26 17:07:01;;;;;;;1.30;1.10;;;;;;;16.64;46.64;98564.56;6221128;23;20020;-65
2021/08/26 17:09:27;;;;;;;0.43;0.43;;;;;;;16.55;46.83;98569.00;6245401;22;20050;-64
2021/08/26 17:11:53;;;;;;;0.20;0.20;;;;;;;16.46;46.88;98571.53;6244979;23;20564;-64
2021/08/26 17:14:19;;;;;;;0.95;0.28;;;;;;;16.37;46.90;98574.03;6244944;23;20026;-66
2021/08/26 17:16:44;;;;;;;0.10;0.10;;;;;;;16.28;47.17;98578.47;6244713;23;20035;-67
2021/08/26 17:19:10;;;;;;;0.85;0.20;;;;;;;16.17;47.56;98574.88;6240766;23;20012;-66
2021/08/26 17:21:36;;;;;;;0.60;0.60;;;;;;;16.08;47.45;98582.91;6244707;23;20476;-66
2021/08/26 17:24:02;;;;;;;0.30;0.30;;;;;;;15.99;47.79;98589.25;6243113;23;20016;-65
2021/08/26 17:26:28;;;;;;;0.57;0.57;;;;;;;15.91;47.83;98587.88;6244833;23;20012;-65
2021/08/26 17:28:54;;;;;;;0.50;0.50;;;;;;;15.84;47.68;98599.25;6244444;22;20008;-65
2021/08/26 17:31:20;;;;;;;0.32;0.32;;;;;;;15.77;47.76;98591.16;6246267;23;20012;-69
2021/08/26 17:33:45;;;;;;;0.50;0.40;;;;;;;15.72;47.80;98599.47;6245643;23;20015;-66
2021/08/26 17:36:11;;;;;;;0.38;0.38;;;;;;;15.67;47.87;98596.66;6245968;23;20375;-70
2021/08/26 17:38:37;;;;;;;1.90;0.80;;;;;;;15.60;48.33;98607.16;6246172;23;20654;-66
2021/08/26 17:41:03;;;;;;;0.20;0.20;;;;;;;15.53;48.31;98604.69;6246071;22;20012;-68
2021/08/26 17:43:28;;;;;;;0.95;0.52;;;;;;;15.45;48.49;98607.97;6245770;23;20094;-65
2021/08/26 17:45:54;;;;;;;0.65;0.65;;;;;;;15.37;48.46;98606.56;6246008;23;20087;-65
2021/08/26 17:48:20;;;;;;;0.45;0.45;;;;;;;15.31;48.50;98615.94;6246228;23;20012;-64
2021/08/26 17:50:45;;;;;;;0.75;0.70;;;;;;;15.25;48.85;98614.25;6245922;22;20041;-65
2021/08/26 17:53:11;;;;;;;0.30;0.30;;;;;;;15.18;48.79;98616.41;6246298;23;20348;-65
2021/08/26 17:55:37;;;;;;;0.57;0.57;;;;;;;15.09;48.96;98618.91;6246031;23;20353;-67
2021/08/26 17:58:03;;;;;;;0.17;0.15;;;;;;;15.02;49.18;98624.66;6245748;23;20384;-68
2021/08/26 18:00:29;;;;;;;0.32;0.32;;;;;;;14.97;49.14;98630.19;6246351;23;20086;-65
2021/08/26 18:02:55;;;;;;;1.10;0.77;;;;;;;14.89;49.28;98625.16;6245518;23;20376;-66
2021/08/26 18:05:27;;;;;;;0.17;0.17;;;;;;;14.82;49.47;98621.78;6245978;23;20070;-64
2021/08/26 18:07:58;;;;;;;13.70;1.27;;;;;;;14.76;49.76;98633.91;6246002;23;20031;-65
2021/08/26 18:10:25;;;;;;;0.82;0.68;;;;;;;14.71;49.86;98634.72;6219265;23;20008;-66
2021/08/26 18:12:51;;;;;;;0.32;0.32;;;;;;;14.64;49.64;98634.94;6245205;23;20012;-64
2021/08/26 18:15:17;;;;;;;0.40;0.30;;;;;;;14.57;50.01;98637.06;6245714;23;20364;-65
2021/08/26 18:17:43;;;;;;;0.40;0.40;;;;;;;14.49;49.99;98643.91;6245702;23;20012;-64
2021/08/26 18:20:10;;;;;;;1.25;0.63;;;;;;;14.45;50.40;98641.94;6245156;23;20094;-65
2021/08/26 18:22:36;;;;;;;0.45;0.38;;;;;;;14.41;50.13;98649.09;6245809;23;20333;-68
2021/08/26 18:25:03;;;;;;;0.20;0.20;;;;;;;14.39;50.19;98643.00;6246118;23;20041;-65
2021/08/26 18:27:29;;;;;;;0.50;0.50;;;;;;;14.34;50.55;98650.16;6245793;23;20388;-67
2021/08/26 18:29:55;;;;;;;0.52;0.45;;;;;;;14.30;50.17;98659.25;6244773;23;20046;-66
2021/08/26 18:32:20;;;;;;;0.98;0.45;;;;;;;14.24;50.32;98661.13;6244619;23;20013;-65
2021/08/26 18:34:52;;;;;;;0.90;0.43;;;;;;;14.18;50.49;98651.94;6243850;23;20016;-65